Terminal Aerodrome Forecast
Issued by NWS Jackson, MS

Home | Current Version | Previous Version | Text Only | Print | Product List | Glossary On
Versions: 1 2 3 4 5 6 7 8 9 10 11 12
000
FTUS44 KJAN 191700
TAFJAN
TAF
KJAN 191720Z 1918/2018 07006KT P6SM -RA OVC028
     FM200000 05005KT P6SM -RA BKN025
     FM200600 04005KT 4SM BR OVC005
     FM201500 02007KT P6SM OVC015=

USA.gov is the U.S. government's official web portal to all federal, state and local government web resources and services.